< < Back
Terminal Aerodrome Forecast


Current Version              Previous Versions:   1  2  3  4  5  6  7  8  9  

Terminal Aerodrome Forecast

250
FTUS42 KTAE 281120
TAFVLD
TAF
KVLD 281120Z 2812/2912 00000KT 6SM BR FEW002
      TEMPO 2812/2813 3SM BR SCT002
     FM281300 VRB04KT P6SM SCT040
     FM290000 00000KT P6SM SCT250=

Latest METAR

689
SAUS70 KWBC 281900 RRB
MTRVLD
METAR KVLD 281853Z 06007KT 10SM FEW043 SCT060 34/23 A2996 RMK AO2 SLP150
T03390233


USA.gov is the U.S. government's official web portal to all federal, state and local government web resources and services.